Time;durP1;ratioP1;P1;durP2;ratioP2;P2;SDS_P1;SDS_P2;PMS_P1;PMS_P2;Temp;Humidity;BMP_temperature;BMP_pressure;BME280_temperature;BME280_humidity;BME280_pressure;Samples;Min_cycle;Max_cycle;Signal;HPM_P1;HPM_P2
2023/06/29 00:01:01;;;;;;;6.60;3.60;;;22.40;50.30;;;;;;4913757;29;20059;-60
2023/06/29 00:03:28;;;;;;;5.50;3.58;;;22.50;50.40;;;;;;4914223;29;20063;-61
2023/06/29 00:05:56;;;;;;;4.97;3.50;;;22.40;50.30;;;;;;4913730;29;20063;-61
2023/06/29 00:08:27;;;;;;;8.02;4.00;;;22.40;50.30;;;;;;4914483;29;20059;-60
2023/06/29 00:10:55;;;;;;;6.95;3.88;;;22.30;50.30;;;;;;4915198;29;20055;-60
2023/06/29 00:13:23;;;;;;;7.28;3.75;;;22.30;50.30;;;;;;4909838;29;20059;-58
2023/06/29 00:15:50;;;;;;;5.57;3.97;;;22.30;50.30;;;;;;4915008;29;20623;-61
2023/06/29 00:18:19;;;;;;;5.65;3.70;;;22.30;50.30;;;;;;4915030;29;20523;-59
2023/06/29 00:20:47;;;;;;;6.53;3.95;;;22.30;50.30;;;;;;4916510;29;20516;-61
2023/06/29 00:23:14;;;;;;;6.20;3.88;;;22.20;50.30;;;;;;4913900;29;20066;-59
2023/06/29 00:25:47;;;;;;;6.00;3.80;;;22.20;50.40;;;;;;4915856;29;20079;-58
2023/06/29 00:28:14;;;;;;;6.40;3.47;;;22.10;50.40;;;;;;4911225;29;20051;-58
2023/06/29 00:30:41;;;;;;;6.80;3.40;;;22.10;50.40;;;;;;4916939;29;20102;-58
2023/06/29 00:33:08;;;;;;;5.05;3.40;;;22.10;50.50;;;;;;4912551;29;20055;-58
2023/06/29 00:35:35;;;;;;;5.20;3.30;;;22.10;50.50;;;;;;4915695;29;20855;-57
2023/06/29 00:38:03;;;;;;;6.95;4.38;;;22.00;50.60;;;;;;4913372;29;20051;-57
2023/06/29 00:40:30;;;;;;;5.60;3.65;;;22.00;50.60;;;;;;4916929;29;20511;-58
2023/06/29 00:42:59;;;;;;;4.93;3.22;;;22.00;50.70;;;;;;4913781;29;20055;-59
2023/06/29 00:45:26;;;;;;;8.68;4.05;;;22.00;50.70;;;;;;4916972;29;20056;-58
2023/06/29 00:47:53;;;;;;;5.50;3.53;;;22.00;50.70;;;;;;4920067;29;20052;-57
2023/06/29 00:50:21;;;;;;;6.18;3.53;;;21.90;50.80;;;;;;4918573;29;20385;-58
2023/06/29 00:52:48;;;;;;;5.53;3.78;;;21.90;50.80;;;;;;4915694;29;20056;-57
2023/06/29 00:55:16;;;;;;;7.88;3.47;;;21.90;50.90;;;;;;4914021;29;20055;-57
2023/06/29 00:57:43;;;;;;;6.18;3.67;;;21.90;50.90;;;;;;4913144;29;20056;-61
2023/06/29 01:00:18;;;;;;;5.78;3.40;;;21.90;50.80;;;;;;4918499;29;20056;-59
2023/06/29 01:02:49;;;;;;;6.47;3.10;;;21.80;50.80;;;;;;4928045;23;20067;-69
2023/06/29 01:05:17;;;;;;;5.05;3.33;;;21.80;50.80;;;;;;4901729;29;20463;-69
2023/06/29 01:07:50;;;;;;;5.68;3.70;;;21.80;50.90;;;;;;4901552;29;20051;-70
2023/06/29 01:10:22;;;;;;;4.53;3.13;;;21.80;51.00;;;;;;4903596;29;20063;-70
2023/06/29 01:12:50;;;;;;;6.55;3.83;;;21.80;51.00;;;;;;4902640;29;20067;-70
2023/06/29 01:15:21;;;;;;;4.68;3.03;;;21.80;51.00;;;;;;4904423;29;20068;-71
2023/06/29 01:17:49;;;;;;;9.10;4.10;;;21.70;51.00;;;;;;4902494;29;20048;-71
2023/06/29 01:20:17;;;;;;;6.15;3.28;;;21.70;51.10;;;;;;4900399;29;20056;-71
2023/06/29 01:22:54;;;;;;;4.10;2.95;;;21.70;51.20;;;;;;4899351;29;20571;-71
2023/06/29 01:25:24;;;;;;;7.05;3.83;;;21.70;51.30;;;;;;4903252;29;20055;-71
2023/06/29 01:27:51;;;;;;;4.22;3.20;;;21.70;51.30;;;;;;4900913;29;20063;-72
2023/06/29 01:30:18;;;;;;;5.20;3.45;;;21.70;51.40;;;;;;4902792;29;20059;-71
2023/06/29 01:32:45;;;;;;;6.10;3.60;;;21.70;51.50;;;;;;4902100;29;20501;-71
2023/06/29 01:35:13;;;;;;;5.38;3.42;;;21.70;51.50;;;;;;4901953;29;20056;-71
2023/06/29 01:37:46;;;;;;;6.00;3.83;;;21.70;51.60;;;;;;4899437;29;20060;-71
2023/06/29 01:40:18;;;;;;;5.53;3.22;;;21.70;51.70;;;;;;4903141;29;20063;-71
2023/06/29 01:42:49;;;;;;;5.35;3.22;;;21.70;51.70;;;;;;4903212;29;20248;-71
2023/06/29 01:45:20;;;;;;;6.65;3.53;;;21.70;51.70;;;;;;4903297;29;20424;-70
2023/06/29 01:47:47;;;;;;;4.43;3.28;;;21.70;51.70;;;;;;4900528;29;20055;-71
2023/06/29 01:50:16;;;;;;;7.25;3.60;;;21.70;51.70;;;;;;4902705;29;20424;-70
2023/06/29 01:52:44;;;;;;;5.15;2.88;;;21.70;51.80;;;;;;4901510;29;20099;-70
2023/06/29 01:55:11;;;;;;;5.68;3.33;;;21.70;51.80;;;;;;4901153;29;20052;-70
2023/06/29 01:57:38;;;;;;;5.53;3.20;;;21.70;51.90;;;;;;4906153;29;20078;-70
2023/06/29 02:00:09;;;;;;;5.10;3.33;;;21.70;51.90;;;;;;4905477;29;20060;-70
2023/06/29 02:02:37;;;;;;;4.53;3.25;;;21.70;52.00;;;;;;4903804;29;20079;-70
2023/06/29 02:05:04;;;;;;;5.47;3.67;;;21.70;52.00;;;;;;4905406;29;20071;-70
2023/06/29 02:07:32;;;;;;;4.25;3.05;;;21.70;52.10;;;;;;4905448;29;20052;-70
2023/06/29 02:09:59;;;;;;;6.22;3.15;;;21.70;52.10;;;;;;4906589;29;20064;-70
2023/06/29 02:12:26;;;;;;;5.57;3.30;;;21.70;52.10;;;;;;4903344;29;20492;-70
2023/06/29 02:14:53;;;;;;;5.28;3.67;;;21.70;52.20;;;;;;4906661;29;20056;-70
2023/06/29 02:17:22;;;;;;;7.18;3.40;;;21.70;52.20;;;;;;4905569;29;20411;-70
2023/06/29 02:19:49;;;;;;;5.70;3.20;;;21.70;52.10;;;;;;4904872;29;20064;-70
2023/06/29 02:22:16;;;;;;;4.90;3.30;;;21.70;52.10;;;;;;4902777;29;20055;-71
2023/06/29 02:24:44;;;;;;;5.57;3.50;;;21.70;52.20;;;;;;4907103;29;20064;-70
2023/06/29 02:27:11;;;;;;;4.72;3.45;;;21.70;52.20;;;;;;4906047;29;20516;-70
2023/06/29 02:29:38;;;;;;;6.80;3.25;;;21.70;52.20;;;;;;4906381;29;20141;-70
2023/06/29 02:32:06;;;;;;;5.95;3.45;;;21.60;52.20;;;;;;4901704;29;20404;-71
2023/06/29 02:34:35;;;;;;;6.03;3.55;;;21.70;52.40;;;;;;4903369;29;20067;-70
2023/06/29 02:37:02;;;;;;;6.45;3.30;;;21.70;52.40;;;;;;4905095;29;20059;-71
2023/06/29 02:39:29;;;;;;;5.45;3.17;;;21.70;52.40;;;;;;4906460;29;20059;-71
2023/06/29 02:41:57;;;;;;;5.05;3.05;;;21.70;52.50;;;;;;4903608;29;20110;-70
2023/06/29 02:44:24;;;;;;;6.75;3.50;;;21.60;52.50;;;;;;4903689;29;20052;-71
2023/06/29 02:46:51;;;;;;;5.03;3.30;;;21.70;52.50;;;;;;4904172;29;20063;-71
2023/06/29 02:49:18;;;;;;;6.13;3.60;;;21.70;52.60;;;;;;4902608;29;20055;-71
2023/06/29 02:51:47;;;;;;;5.18;3.35;;;21.70;52.60;;;;;;4903655;29;20055;-71
2023/06/29 02:54:14;;;;;;;5.88;3.38;;;21.70;52.60;;;;;;4905486;29;20068;-70
2023/06/29 02:56:41;;;;;;;5.28;3.67;;;21.70;52.60;;;;;;4901113;29;20519;-70
2023/06/29 02:59:08;;;;;;;5.88;3.33;;;21.60;52.50;;;;;;4905119;29;20044;-70
2023/06/29 03:01:36;;;;;;;5.88;3.25;;;21.70;52.60;;;;;;4904137;29;20055;-70
2023/06/29 03:04:03;;;;;;;6.78;3.60;;;21.70;52.60;;;;;;4903798;29;20060;-70
2023/06/29 03:06:30;;;;;;;5.82;3.28;;;21.70;52.60;;;;;;4905340;29;20606;-70
2023/06/29 03:08:59;;;;;;;4.45;3.13;;;21.60;52.60;;;;;;4905384;29;20255;-69
2023/06/29 03:11:26;;;;;;;5.88;3.70;;;21.60;52.70;;;;;;4906693;29;20048;-70
2023/06/29 03:13:55;;;;;;;5.30;3.40;;;21.70;52.80;;;;;;4906560;29;20532;-70
2023/06/29 03:16:23;;;;;;;5.80;3.47;;;21.60;52.70;;;;;;4906834;29;20060;-70
2023/06/29 03:18:50;;;;;;;5.38;3.75;;;21.60;52.80;;;;;;4907625;29;20055;-69
2023/06/29 03:21:18;;;;;;;5.15;3.50;;;21.60;52.80;;;;;;4905096;29;20063;-70
2023/06/29 03:23:45;;;;;;;4.72;3.40;;;21.60;52.90;;;;;;4905928;29;20546;-69
2023/06/29 03:26:14;;;;;;;6.25;3.70;;;21.60;52.90;;;;;;4904823;29;20099;-69
2023/06/29 03:28:42;;;;;;;7.53;3.50;;;21.60;52.90;;;;;;4905515;29;20052;-66
2023/06/29 03:31:09;;;;;;;4.43;3.30;;;21.60;52.90;;;;;;4901531;29;20409;-65
2023/06/29 03:33:36;;;;;;;4.75;3.40;;;21.60;53.00;;;;;;4901612;29;20059;-65
2023/06/29 03:36:04;;;;;;;6.78;3.50;;;21.60;53.00;;;;;;4902202;29;20487;-65
2023/06/29 03:38:31;;;;;;;4.72;3.47;;;21.60;53.00;;;;;;4902856;29;20059;-65
2023/06/29 03:40:59;;;;;;;4.45;3.15;;;21.60;53.00;;;;;;4903350;29;20947;-64
2023/06/29 03:43:27;;;;;;;5.07;3.28;;;21.60;53.00;;;;;;4903264;29;20056;-65
2023/06/29 03:45:54;;;;;;;4.70;3.33;;;21.60;53.10;;;;;;4904216;29;20059;-64
2023/06/29 03:48:22;;;;;;;5.03;3.58;;;21.60;53.10;;;;;;4905695;29;20412;-66
2023/06/29 03:50:49;;;;;;;6.97;3.67;;;21.60;53.20;;;;;;4902653;29;20053;-65
2023/06/29 03:53:16;;;;;;;6.22;3.92;;;21.60;53.20;;;;;;4889182;29;20432;-66
2023/06/29 03:55:43;;;;;;;4.88;3.85;;;21.60;53.20;;;;;;4904630;29;20052;-65
2023/06/29 03:58:11;;;;;;;5.45;3.92;;;21.60;53.30;;;;;;4903712;29;20075;-66
2023/06/29 04:00:39;;;;;;;6.47;3.83;;;21.60;53.30;;;;;;4900870;29;20064;-66
2023/06/29 04:03:06;;;;;;;5.70;3.80;;;21.60;53.30;;;;;;4903698;29;20060;-66
2023/06/29 04:05:34;;;;;;;5.47;3.67;;;21.70;53.40;;;;;;4902698;29;20413;-64
2023/06/29 04:08:04;;;;;;;5.10;3.58;;;21.60;53.30;;;;;;4903730;29;20056;-65
2023/06/29 04:10:31;;;;;;;6.63;4.07;;;21.70;53.40;;;;;;4903474;29;20060;-65
2023/06/29 04:12:58;;;;;;;5.00;3.35;;;21.70;53.40;;;;;;4902929;29;20424;-67
2023/06/29 04:15:25;;;;;;;5.35;3.63;;;21.70;53.40;;;;;;4902984;29;20056;-66
2023/06/29 04:17:54;;;;;;;4.72;3.42;;;21.70;53.50;;;;;;4901647;29;20508;-65
2023/06/29 04:20:21;;;;;;;7.18;3.53;;;21.70;53.50;;;;;;4901542;29;20059;-65
2023/06/29 04:22:49;;;;;;;6.47;3.78;;;21.60;53.40;;;;;;4904188;29;20056;-66
2023/06/29 04:25:16;;;;;;;7.35;4.40;;;21.70;53.40;;;;;;4902776;29;20067;-66
2023/06/29 04:27:43;;;;;;;7.38;4.03;;;21.60;53.30;;;;;;4902652;29;20062;-67
2023/06/29 04:30:11;;;;;;;10.13;5.47;;;21.60;53.30;;;;;;4905852;29;20497;-64
2023/06/29 04:32:39;;;;;;;8.23;4.95;;;21.70;53.40;;;;;;4906054;29;20068;-65
2023/06/29 04:35:09;;;;;;;6.47;4.28;;;21.70;53.40;;;;;;4901278;29;20416;-65
2023/06/29 04:37:41;;;;;;;7.57;3.67;;;21.70;53.40;;;;;;4902162;29;20060;-67
2023/06/29 04:40:10;;;;;;;6.47;4.03;;;21.70;53.40;;;;;;4903069;29;20934;-64
2023/06/29 04:42:44;;;;;;;6.88;3.92;;;21.70;53.40;;;;;;4901575;29;20432;-65
2023/06/29 04:45:17;;;;;;;6.70;4.05;;;21.70;53.50;;;;;;4902022;29;20067;-65
2023/06/29 04:47:45;;;;;;;6.40;3.63;;;21.70;53.50;;;;;;4902511;29;20055;-65
2023/06/29 04:50:14;;;;;;;5.32;3.53;;;21.70;53.60;;;;;;4897596;29;20511;-66
2023/06/29 04:52:43;;;;;;;5.78;3.72;;;21.80;53.70;;;;;;4901967;29;20064;-66
2023/06/29 04:55:11;;;;;;;6.28;3.75;;;21.70;53.60;;;;;;4904030;29;20048;-65
2023/06/29 04:57:38;;;;;;;4.45;3.58;;;21.80;53.70;;;;;;4899764;29;20501;-65
2023/06/29 05:00:10;;;;;;;4.85;3.25;;;21.80;53.70;;;;;;4899489;29;21691;-66
2023/06/29 05:02:38;;;;;;;5.75;3.72;;;21.80;53.80;;;;;;4901845;29;20055;-63
2023/06/29 05:05:05;;;;;;;5.40;3.40;;;21.80;53.70;;;;;;4897961;29;23034;-64
2023/06/29 05:07:35;;;;;;;3.83;3.30;;;21.80;53.80;;;;;;4894970;29;20063;-65
2023/06/29 05:10:03;;;;;;;5.43;3.45;;;21.80;53.80;;;;;;4893564;29;20056;-64
2023/06/29 05:12:30;;;;;;;4.70;3.30;;;21.80;53.80;;;;;;4896324;29;20052;-64
2023/06/29 05:14:57;;;;;;;4.95;3.38;;;21.90;53.80;;;;;;4901041;29;20060;-64
2023/06/29 05:17:25;;;;;;;4.80;3.42;;;21.90;53.80;;;;;;4902863;29;20397;-64
2023/06/29 05:19:52;;;;;;;5.93;3.55;;;21.90;53.80;;;;;;4900140;29;20052;-64
2023/06/29 05:22:20;;;;;;;5.18;3.65;;;21.90;53.90;;;;;;4899664;29;20063;-65
2023/06/29 05:24:48;;;;;;;5.28;3.28;;;21.90;53.90;;;;;;4900315;29;20615;-64
2023/06/29 05:27:15;;;;;;;4.15;2.80;;;21.90;53.90;;;;;;4901669;29;20067;-64
2023/06/29 05:29:43;;;;;;;6.47;3.38;;;22.00;53.90;;;;;;4901491;29;20505;-65
2023/06/29 05:32:10;;;;;;;4.38;3.30;;;22.00;53.90;;;;;;4903211;29;20083;-62
2023/06/29 05:34:37;;;;;;;7.35;3.33;;;22.00;53.90;;;;;;4904649;29;20056;-62
2023/06/29 05:37:05;;;;;;;4.10;3.40;;;22.00;53.90;;;;;;4906200;29;20404;-64
2023/06/29 05:39:32;;;;;;;5.55;3.50;;;22.00;53.90;;;;;;4905921;29;20064;-64
2023/06/29 05:42:01;;;;;;;5.90;3.40;;;22.10;53.90;;;;;;4904921;29;20060;-64
2023/06/29 05:44:28;;;;;;;7.57;3.63;;;22.10;53.90;;;;;;4905711;29;20420;-63
2023/06/29 05:46:55;;;;;;;4.57;3.00;;;22.10;53.80;;;;;;4900843;29;20893;-63
2023/06/29 05:49:23;;;;;;;5.18;3.20;;;22.10;53.80;;;;;;4903401;29;20634;-62
2023/06/29 05:51:50;;;;;;;5.63;3.33;;;22.20;53.90;;;;;;4903498;29;20067;-63
2023/06/29 05:54:18;;;;;;;5.03;2.90;;;22.20;53.80;;;;;;4906220;29;20077;-64
2023/06/29 05:56:45;;;;;;;5.57;3.30;;;22.20;53.80;;;;;;4904582;29;20054;-62
2023/06/29 05:59:14;;;;;;;4.95;3.00;;;22.30;53.80;;;;;;4904742;29;20500;-63
2023/06/29 06:01:42;;;;;;;5.93;2.90;;;22.30;53.80;;;;;;4900690;29;20060;-64
2023/06/29 06:04:09;;;;;;;4.30;2.85;;;22.30;53.70;;;;;;4896396;29;20056;-63
2023/06/29 06:06:39;;;;;;;4.60;3.00;;;22.30;53.60;;;;;;4902796;29;20496;-64
2023/06/29 06:09:06;;;;;;;5.00;2.70;;;22.40;53.60;;;;;;4905305;29;20063;-64
2023/06/29 06:11:33;;;;;;;6.72;3.08;;;22.40;53.60;;;;;;4903973;29;20071;-64
2023/06/29 06:14:00;;;;;;;5.85;2.67;;;22.50;53.60;;;;;;4905073;29;20701;-64
2023/06/29 06:16:29;;;;;;;3.53;2.53;;;22.50;53.50;;;;;;4904323;29;20071;-63
2023/06/29 06:18:56;;;;;;;4.78;3.05;;;22.60;53.50;;;;;;4905036;29;20067;-63
2023/06/29 06:21:23;;;;;;;4.55;2.95;;;22.60;53.40;;;;;;4903668;29;20059;-62
2023/06/29 06:23:52;;;;;;;5.10;2.75;;;22.60;53.30;;;;;;4904049;29;20063;-62
2023/06/29 06:26:19;;;;;;;4.68;2.80;;;22.70;53.20;;;;;;4903859;29;20048;-64
2023/06/29 06:28:46;;;;;;;5.40;2.90;;;22.70;53.10;;;;;;4904664;29;20055;-63
2023/06/29 06:31:14;;;;;;;5.35;2.47;;;22.80;53.00;;;;;;4905157;29;20048;-64
2023/06/29 06:33:45;;;;;;;3.80;2.45;;;22.80;53.00;;;;;;4902043;29;20059;-63
2023/06/29 06:36:12;;;;;;;4.57;2.80;;;22.80;52.90;;;;;;4903691;29;20071;-62
2023/06/29 06:38:39;;;;;;;3.60;2.58;;;22.90;52.90;;;;;;4904828;29;20527;-62
2023/06/29 06:41:07;;;;;;;3.45;2.40;;;22.90;52.80;;;;;;4903872;29;20063;-62
2023/06/29 06:43:35;;;;;;;3.85;2.50;;;23.00;52.80;;;;;;4903627;29;20397;-63
2023/06/29 06:46:02;;;;;;;3.63;2.70;;;23.00;52.80;;;;;;4904616;29;20056;-63
2023/06/29 06:48:29;;;;;;;4.25;2.47;;;23.00;52.70;;;;;;4902367;29;20056;-62
2023/06/29 06:50:58;;;;;;;7.40;2.95;;;23.10;52.70;;;;;;4902863;29;20052;-62
2023/06/29 06:53:25;;;;;;;3.88;2.55;;;23.10;52.60;;;;;;4903749;29;20496;-62
2023/06/29 06:55:53;;;;;;;5.00;2.58;;;23.10;52.50;;;;;;4906192;29;20063;-61
2023/06/29 06:58:20;;;;;;;4.85;2.67;;;23.20;52.50;;;;;;4900112;29;20059;-63
2023/06/29 07:00:47;;;;;;;3.53;2.15;;;23.20;52.50;;;;;;4902597;29;20423;-65
2023/06/29 07:03:15;;;;;;;3.92;2.17;;;23.30;52.40;;;;;;4904336;29;20067;-63
2023/06/29 07:05:42;;;;;;;3.30;1.98;;;23.30;52.30;;;;;;4904976;29;20056;-63
2023/06/29 07:08:10;;;;;;;4.20;2.50;;;23.40;52.30;;;;;;4904527;29;20063;-62
2023/06/29 07:10:38;;;;;;;4.78;2.35;;;23.40;52.20;;;;;;4905027;29;20080;-64
2023/06/29 07:13:05;;;;;;;6.93;2.50;;;23.50;52.20;;;;;;4901306;29;20508;-62
2023/06/29 07:15:32;;;;;;;3.45;2.50;;;23.50;52.20;;;;;;4904695;29;20055;-62
2023/06/29 07:18:00;;;;;;;4.25;2.10;;;23.50;52.20;;;;;;4904738;29;20079;-63
2023/06/29 07:20:27;;;;;;;5.13;2.60;;;23.60;52.20;;;;;;4906479;29;20051;-62
2023/06/29 07:22:54;;;;;;;8.43;2.60;;;23.60;52.10;;;;;;4907767;29;20067;-63
2023/06/29 07:25:22;;;;;;;4.60;2.70;;;23.70;52.20;;;;;;4907959;29;20060;-62
2023/06/29 07:27:50;;;;;;;4.97;2.53;;;23.70;52.00;;;;;;4905470;29;20062;-62
2023/06/29 07:30:17;;;;;;;6.95;2.55;;;23.70;51.90;;;;;;4905519;29;20052;-63
2023/06/29 07:32:44;;;;;;;4.05;2.58;;;23.70;51.90;;;;;;4907186;29;20060;-62
2023/06/29 07:35:14;;;;;;;3.60;2.25;;;23.80;52.00;;;;;;4903707;29;20060;-64
2023/06/29 07:37:41;;;;;;;3.90;2.30;;;23.80;52.00;;;;;;4904583;29;20056;-62
2023/06/29 07:40:09;;;;;;;3.88;2.28;;;23.80;51.90;;;;;;4902830;29;20504;-63
2023/06/29 07:42:38;;;;;;;3.15;2.30;;;23.90;52.00;;;;;;4903507;29;20072;-62
2023/06/29 07:45:07;;;;;;;6.10;2.42;;;23.90;52.00;;;;;;4901664;29;20067;-62
2023/06/29 07:47:34;;;;;;;2.50;2.10;;;24.00;52.00;;;;;;4901677;29;20500;-62
2023/06/29 07:50:02;;;;;;;2.70;2.05;;;24.10;52.10;;;;;;4902762;29;20067;-65
2023/06/29 07:52:30;;;;;;;7.18;2.10;;;24.10;52.10;;;;;;4905104;29;20082;-63
2023/06/29 07:54:58;;;;;;;3.10;2.08;;;24.20;52.10;;;;;;4904423;29;20056;-62
2023/06/29 07:57:25;;;;;;;3.97;2.10;;;24.20;52.00;;;;;;4903781;29;20413;-61
2023/06/29 07:59:53;;;;;;;3.45;1.73;;;24.30;51.80;;;;;;4903103;29;20063;-62
2023/06/29 08:02:21;;;;;;;3.53;1.88;;;24.40;51.40;;;;;;4899566;29;20413;-64
2023/06/29 08:04:50;;;;;;;6.30;2.28;;;24.40;51.10;;;;;;4901836;29;20432;-62
2023/06/29 08:07:17;;;;;;;2.17;1.70;;;24.50;50.80;;;;;;4902062;29;20067;-66
2023/06/29 08:09:45;;;;;;;4.70;1.90;;;24.50;50.60;;;;;;4902934;29;20067;-62
2023/06/29 08:12:12;;;;;;;3.78;1.73;;;24.50;50.40;;;;;;4902839;29;20063;-64
2023/06/29 08:14:39;;;;;;;3.05;1.60;;;24.50;50.10;;;;;;4904109;29;20606;-64
2023/06/29 08:17:08;;;;;;;2.47;1.67;;;24.60;50.10;;;;;;4902978;29;20055;-62
2023/06/29 08:19:35;;;;;;;9.13;1.60;;;24.60;49.80;;;;;;4903220;29;20328;-62
2023/06/29 08:22:03;;;;;;;4.95;1.83;;;24.60;49.70;;;;;;4900932;29;20987;-63
2023/06/29 08:24:30;;;;;;;4.05;1.40;;;24.60;49.20;;;;;;4904738;29;20055;-62
2023/06/29 08:26:59;;;;;;;6.88;1.70;;;24.60;49.20;;;;;;4902199;29;20059;-60
2023/06/29 08:29:26;;;;;;;5.15;1.88;;;24.70;49.00;;;;;;4904329;29;20070;-62
2023/06/29 08:31:53;;;;;;;4.22;1.50;;;24.70;48.80;;;;;;4903576;29;20055;-62
2023/06/29 08:34:22;;;;;;;3.67;1.80;;;24.60;48.80;;;;;;4901144;29;20059;-63
2023/06/29 08:36:49;;;;;;;2.70;1.45;;;24.60;48.60;;;;;;4903082;29;20075;-62
2023/06/29 08:39:17;;;;;;;3.58;1.73;;;24.60;48.60;;;;;;4902665;29;20052;-62
2023/06/29 08:41:45;;;;;;;3.83;1.33;;;24.60;48.60;;;;;;4900494;29;20052;-62
2023/06/29 08:44:14;;;;;;;2.72;1.50;;;24.60;48.50;;;;;;4899154;29;20412;-63
2023/06/29 08:46:44;;;;;;;2.42;1.58;;;24.60;48.40;;;;;;4903082;29;20059;-63
2023/06/29 08:49:13;;;;;;;2.10;1.50;;;24.60;48.50;;;;;;4902659;29;20472;-62
2023/06/29 08:51:47;;;;;;;3.55;1.63;;;24.60;48.70;;;;;;4901774;29;20412;-61
2023/06/29 08:54:15;;;;;;;6.03;2.00;;;24.60;48.80;;;;;;4903337;29;20433;-64
2023/06/29 08:56:43;;;;;;;4.25;1.70;;;24.60;48.80;;;;;;4900679;29;20496;-63
2023/06/29 08:59:10;;;;;;;9.13;1.70;;;24.70;48.90;;;;;;4900427;29;20063;-62
2023/06/29 09:01:38;;;;;;;3.72;1.70;;;24.60;48.80;;;;;;4903132;29;20056;-62
2023/06/29 09:04:05;;;;;;;6.20;1.88;;;24.60;48.90;;;;;;4901272;29;20432;-63
2023/06/29 09:06:33;;;;;;;2.25;1.48;;;24.60;48.90;;;;;;4901363;29;20056;-64
2023/06/29 09:09:02;;;;;;;10.10;2.65;;;24.60;49.50;;;;;;4900450;29;20056;-63
2023/06/29 09:11:33;;;;;;;4.68;1.85;;;24.60;49.10;;;;;;4901551;29;20052;-63
2023/06/29 09:14:05;;;;;;;551.83;52.72;;;24.60;49.20;;;;;;4903364;29;20056;-62
2023/06/29 09:16:34;;;;;;;177.88;25.40;;;24.70;49.30;;;;;;4901005;29;20630;-64
2023/06/29 09:19:03;;;;;;;52.38;10.02;;;24.70;49.40;;;;;;4902659;29;20067;-66
2023/06/29 09:21:31;;;;;;;14.30;3.97;;;24.80;49.60;;;;;;4901756;29;20063;-67
2023/06/29 09:23:59;;;;;;;5.60;2.10;;;24.80;49.60;;;;;;4902408;29;20048;-66
2023/06/29 09:26:29;;;;;;;3.20;2.03;;;24.90;49.50;;;;;;4901680;29;20052;-66
2023/06/29 09:29:00;;;;;;;5.28;2.20;;;25.00;49.40;;;;;;4903223;29;20067;-67
2023/06/29 09:31:32;;;;;;;3.88;2.03;;;25.00;49.40;;;;;;4902246;29;20056;-69
2023/06/29 09:34:17;;;;;;;7.50;2.70;;;25.10;49.10;;;;;;4902616;29;20491;-67
2023/06/29 09:36:44;;;;;;;3.60;2.28;;;25.20;48.80;;;;;;4901753;29;20056;-68
2023/06/29 09:39:12;;;;;;;4.38;2.03;;;25.20;48.80;;;;;;4903273;29;20056;-68
2023/06/29 09:41:49;;;;;;;3.45;2.13;;;25.30;48.80;;;;;;4901422;29;20052;-68
2023/06/29 09:44:19;;;;;;;4.97;1.90;;;25.40;48.60;;;;;;4903758;29;20060;-68
2023/06/29 09:46:46;;;;;;;3.15;1.75;;;25.40;48.50;;;;;;4900401;29;20072;-69
2023/06/29 09:49:13;;;;;;;3.97;1.80;;;25.40;48.30;;;;;;4901733;29;20503;-69
2023/06/29 09:51:41;;;;;;;9.43;2.28;;;25.50;48.30;;;;;;4900873;29;20060;-69
2023/06/29 09:54:11;;;;;;;5.50;1.95;;;25.50;48.30;;;;;;4902724;29;20063;-69
2023/06/29 09:56:38;;;;;;;7.28;2.67;;;25.60;48.30;;;;;;4900472;29;20063;-69
2023/06/29 09:59:10;;;;;;;3.47;2.00;;;25.60;48.30;;;;;;4902761;29;20083;-68
2023/06/29 10:01:37;;;;;;;5.47;2.00;;;25.70;48.00;;;;;;4899227;29;20067;-68
2023/06/29 10:04:05;;;;;;;3.47;1.88;;;25.80;48.10;;;;;;4901433;29;20060;-67
2023/06/29 10:06:39;;;;;;;3.40;1.98;;;25.80;48.30;;;;;;4901508;29;20067;-67
2023/06/29 10:09:06;;;;;;;3.80;1.90;;;25.80;48.60;;;;;;4900503;29;20496;-67
2023/06/29 10:11:36;;;;;;;3.60;1.80;;;25.90;48.00;;;;;;4901418;29;20048;-67
2023/06/29 10:14:06;;;;;;;3.97;2.20;;;25.90;47.90;;;;;;4903259;29;20052;-67
2023/06/29 10:16:40;;;;;;;4.70;2.28;;;26.00;47.90;;;;;;4902828;29;20063;-68
2023/06/29 10:19:15;;;;;;;5.28;2.28;;;26.00;48.40;;;;;;4904429;29;20051;-68
2023/06/29 10:21:43;;;;;;;4.57;2.45;;;26.10;47.80;;;;;;4903435;29;20055;-68
2023/06/29 10:24:14;;;;;;;4.65;2.22;;;26.20;47.80;;;;;;4903818;29;20060;-68
2023/06/29 10:26:43;;;;;;;3.97;2.17;;;26.20;47.60;;;;;;4904388;29;20056;-68
2023/06/29 10:29:10;;;;;;;3.08;2.30;;;26.30;47.30;;;;;;4904724;29;20070;-67
2023/06/29 10:31:46;;;;;;;5.85;2.42;;;26.30;47.20;;;;;;4906024;29;20411;-68
2023/06/29 10:34:14;;;;;;;5.10;2.10;;;26.30;47.00;;;;;;4904504;29;20059;-67
2023/06/29 10:36:46;;;;;;;5.28;2.50;;;26.30;46.90;;;;;;4903740;29;20424;-68
2023/06/29 10:39:43;;;;;;;4.72;2.40;;;26.40;47.40;;;;;;4905613;29;20059;-68
2023/06/29 10:42:15;;;;;;;4.97;2.08;;;26.40;47.20;;;;;;4906523;29;20056;-68
2023/06/29 10:44:47;;;;;;;7.72;2.38;;;26.50;47.10;;;;;;4906769;29;20067;-68
2023/06/29 10:47:27;;;;;;;5.70;2.55;;;26.50;46.90;;;;;;4907416;29;20052;-69
2023/06/29 10:50:17;;;;;;;2.78;1.95;;;26.60;46.70;;;;;;4906916;29;20492;-69
2023/06/29 10:52:48;;;;;;;4.97;2.00;;;26.60;46.70;;;;;;4905223;29;20056;-66
2023/06/29 10:55:15;;;;;;;4.90;2.55;;;26.60;47.00;;;;;;4908218;29;20056;-68
2023/06/29 10:57:46;;;;;;;5.75;2.67;;;26.70;47.00;;;;;;4904981;29;20055;-66
2023/06/29 11:00:15;;;;;;;7.50;2.75;;;26.80;46.90;;;;;;4907437;29;20052;-68
2023/06/29 11:02:44;;;;;;;6.80;2.95;;;26.80;46.80;;;;;;4907476;29;20492;-68
2023/06/29 11:05:13;;;;;;;5.15;2.85;;;26.80;46.40;;;;;;4907588;29;20060;-69
2023/06/29 11:07:41;;;;;;;5.97;2.70;;;26.90;46.40;;;;;;4906775;29;20064;-66
2023/06/29 11:10:09;;;;;;;4.55;2.60;;;26.90;46.10;;;;;;4907039;29;20059;-60
2023/06/29 11:12:37;;;;;;;6.32;2.95;;;27.00;45.80;;;;;;4905595;29;20493;-60
2023/06/29 11:15:12;;;;;;;8.65;3.00;;;27.10;45.80;;;;;;4907890;29;20056;-61
2023/06/29 11:17:39;;;;;;;6.50;3.13;;;27.10;45.70;;;;;;4906127;29;20535;-66
2023/06/29 11:20:12;;;;;;;4.38;2.80;;;27.10;45.90;;;;;;4907551;29;20060;-64
2023/06/29 11:22:39;;;;;;;6.95;2.70;;;27.20;45.50;;;;;;4905464;29;20064;-62
2023/06/29 11:25:07;;;;;;;4.15;2.70;;;27.20;45.50;;;;;;4905787;29;20507;-63
2023/06/29 11:27:35;;;;;;;5.25;2.47;;;27.30;45.30;;;;;;4904075;29;20063;-62
2023/06/29 11:30:05;;;;;;;8.27;3.33;;;27.30;45.50;;;;;;4905053;29;20493;-59
2023/06/29 11:32:33;;;;;;;6.15;3.20;;;27.40;45.50;;;;;;4906306;29;20067;-60
2023/06/29 11:35:01;;;;;;;8.82;3.22;;;27.40;44.90;;;;;;4906332;29;20059;-59
2023/06/29 11:37:29;;;;;;;10.82;3.30;;;27.40;44.40;;;;;;4904786;29;20056;-59
2023/06/29 11:39:57;;;;;;;6.85;3.25;;;27.40;44.40;;;;;;4906448;29;20524;-61
2023/06/29 11:42:26;;;;;;;9.32;3.17;;;27.40;44.40;;;;;;4905287;29;20062;-60
2023/06/29 11:45:01;;;;;;;3.72;2.63;;;27.40;44.50;;;;;;4904490;29;20056;-60
2023/06/29 11:47:29;;;;;;;8.15;3.30;;;27.30;43.80;;;;;;4906635;29;20052;-65
2023/06/29 11:49:59;;;;;;;6.35;3.45;;;27.30;43.40;;;;;;4905211;29;20059;-61
2023/06/29 11:52:30;;;;;;;7.63;3.13;;;27.30;43.20;;;;;;4904638;29;20048;-60
2023/06/29 11:54:58;;;;;;;4.63;2.83;;;27.20;43.30;;;;;;4905441;29;20059;-61
2023/06/29 11:57:26;;;;;;;3.75;2.70;;;27.20;43.30;;;;;;4903948;29;20059;-60
2023/06/29 11:59:53;;;;;;;6.32;3.05;;;27.20;44.40;;;;;;4906678;29;20059;-61
2023/06/29 12:02:21;;;;;;;4.65;2.83;;;27.10;43.70;;;;;;4906778;29;20067;-63
2023/06/29 12:04:56;;;;;;;8.73;4.00;;;27.10;43.60;;;;;;4905871;29;20075;-59
2023/06/29 12:07:46;;;;;;;8.98;3.85;;;27.10;43.00;;;;;;4903054;29;20082;-61
2023/06/29 12:10:14;;;;;;;9.32;4.07;;;27.00;42.80;;;;;;4902530;29;20056;-60
2023/06/29 12:12:43;;;;;;;5.95;3.90;;;27.00;43.10;;;;;;4904613;29;20052;-60
2023/06/29 12:15:17;;;;;;;10.93;4.35;;;27.00;43.40;;;;;;4905212;29;20067;-59
2023/06/29 12:17:45;;;;;;;8.10;4.80;;;27.00;43.10;;;;;;4904724;29;20059;-59
2023/06/29 12:20:17;;;;;;;5.90;4.18;;;26.90;43.00;;;;;;4904170;29;20056;-59
2023/06/29 12:22:46;;;;;;;7.22;4.25;;;26.90;43.00;;;;;;4906033;29;20060;-60
2023/06/29 12:25:14;;;;;;;7.45;4.43;;;26.80;43.20;;;;;;4906410;29;20064;-59
2023/06/29 12:27:43;;;;;;;7.53;4.97;;;26.90;43.40;;;;;;4906329;29;20515;-59
2023/06/29 12:30:14;;;;;;;9.07;4.35;;;26.90;43.50;;;;;;4903225;29;20056;-59
2023/06/29 12:32:42;;;;;;;7.75;4.50;;;26.80;43.70;;;;;;4902467;29;20063;-59
2023/06/29 12:35:09;;;;;;;6.97;4.03;;;26.90;43.60;;;;;;4904656;29;20519;-59
2023/06/29 12:37:36;;;;;;;8.80;4.45;;;26.90;43.70;;;;;;4904246;29;20523;-60
2023/06/29 12:40:07;;;;;;;6.63;4.10;;;26.90;44.00;;;;;;4905415;29;20064;-60
2023/06/29 12:42:35;;;;;;;8.27;4.60;;;26.90;43.90;;;;;;4904967;29;20059;-61
2023/06/29 12:45:04;;;;;;;7.57;4.35;;;26.90;43.80;;;;;;4904046;29;20055;-63
2023/06/29 12:47:33;;;;;;;9.15;4.78;;;26.90;43.90;;;;;;4903558;29;20056;-67
2023/06/29 12:50:01;;;;;;;8.30;4.90;;;26.90;43.30;;;;;;4904164;29;20063;-61
2023/06/29 12:52:28;;;;;;;8.68;5.13;;;27.00;43.20;;;;;;4903811;29;20063;-61